sensor_id;sensor_type;location;lat;lon;timestamp;P1;durP1;ratioP1;P2;durP2;ratioP2
79452;SDS011;68899;52.116;5.404;2023-11-21T00:01:03;4.72;;;3.17;;
79452;SDS011;68899;52.116;5.404;2023-11-21T00:03:31;5.65;;;2.92;;
79452;SDS011;68899;52.116;5.404;2023-11-21T00:05:58;5.07;;;2.85;;
79452;SDS011;68899;52.116;5.404;2023-11-21T00:08:25;5.85;;;3.35;;
79452;SDS011;68899;52.116;5.404;2023-11-21T00:10:51;7.30;;;3.15;;
79452;SDS011;68899;52.116;5.404;2023-11-21T00:13:18;5.35;;;3.17;;
79452;SDS011;68899;52.116;5.404;2023-11-21T00:15:44;7.53;;;3.88;;
79452;SDS011;68899;52.116;5.404;2023-11-21T00:18:11;5.80;;;3.47;;
79452;SDS011;68899;52.116;5.404;2023-11-21T00:20:38;4.97;;;3.25;;
79452;SDS011;68899;52.116;5.404;2023-11-21T00:23:04;7.82;;;4.25;;
79452;SDS011;68899;52.116;5.404;2023-11-21T00:25:31;7.53;;;3.58;;
79452;SDS011;68899;52.116;5.404;2023-11-21T00:27:58;6.68;;;3.25;;
79452;SDS011;68899;52.116;5.404;2023-11-21T00:30:25;5.95;;;3.30;;
79452;SDS011;68899;52.116;5.404;2023-11-21T00:32:52;6.07;;;3.53;;
79452;SDS011;68899;52.116;5.404;2023-11-21T00:35:18;6.30;;;3.58;;
79452;SDS011;68899;52.116;5.404;2023-11-21T00:37:45;5.60;;;3.10;;
79452;SDS011;68899;52.116;5.404;2023-11-21T00:40:12;5.70;;;4.28;;
79452;SDS011;68899;52.116;5.404;2023-11-21T00:42:39;6.95;;;3.30;;
79452;SDS011;68899;52.116;5.404;2023-11-21T00:45:06;9.18;;;3.90;;
79452;SDS011;68899;52.116;5.404;2023-11-21T00:47:33;5.65;;;3.45;;
79452;SDS011;68899;52.116;5.404;2023-11-21T00:50:00;6.40;;;3.13;;
79452;SDS011;68899;52.116;5.404;2023-11-21T00:52:26;6.18;;;3.33;;
79452;SDS011;68899;52.116;5.404;2023-11-21T00:54:53;5.15;;;3.38;;
79452;SDS011;68899;52.116;5.404;2023-11-21T00:57:20;5.60;;;3.25;;
79452;SDS011;68899;52.116;5.404;2023-11-21T00:59:46;6.68;;;3.22;;
79452;SDS011;68899;52.116;5.404;2023-11-21T01:02:12;7.50;;;4.38;;
79452;SDS011;68899;52.116;5.404;2023-11-21T01:04:39;6.30;;;4.40;;
79452;SDS011;68899;52.116;5.404;2023-11-21T01:07:05;6.03;;;3.63;;
79452;SDS011;68899;52.116;5.404;2023-11-21T01:09:32;6.43;;;3.58;;
79452;SDS011;68899;52.116;5.404;2023-11-21T01:11:58;5.20;;;3.55;;
79452;SDS011;68899;52.116;5.404;2023-11-21T01:14:26;6.18;;;3.30;;
79452;SDS011;68899;52.116;5.404;2023-11-21T01:16:53;7.60;;;4.00;;
79452;SDS011;68899;52.116;5.404;2023-11-21T01:19:20;7.53;;;4.05;;
79452;SDS011;68899;52.116;5.404;2023-11-21T01:21:47;7.47;;;4.15;;
79452;SDS011;68899;52.116;5.404;2023-11-21T01:24:13;11.75;;;4.40;;
79452;SDS011;68899;52.116;5.404;2023-11-21T01:26:40;8.07;;;3.85;;
79452;SDS011;68899;52.116;5.404;2023-11-21T01:29:06;8.60;;;4.40;;
79452;SDS011;68899;52.116;5.404;2023-11-21T01:31:33;6.63;;;4.07;;
79452;SDS011;68899;52.116;5.404;2023-11-21T01:34:00;7.47;;;4.32;;
79452;SDS011;68899;52.116;5.404;2023-11-21T01:36:31;7.38;;;4.45;;
79452;SDS011;68899;52.116;5.404;2023-11-21T01:39:01;9.20;;;3.90;;
79452;SDS011;68899;52.116;5.404;2023-11-21T01:41:34;6.55;;;3.75;;
79452;SDS011;68899;52.116;5.404;2023-11-21T01:44:01;7.10;;;4.35;;
79452;SDS011;68899;52.116;5.404;2023-11-21T01:46:28;7.43;;;4.10;;
79452;SDS011;68899;52.116;5.404;2023-11-21T01:48:55;8.32;;;4.72;;
79452;SDS011;68899;52.116;5.404;2023-11-21T01:51:22;7.57;;;4.20;;
79452;SDS011;68899;52.116;5.404;2023-11-21T01:53:49;8.60;;;3.80;;
79452;SDS011;68899;52.116;5.404;2023-11-21T01:56:16;9.82;;;5.32;;
79452;SDS011;68899;52.116;5.404;2023-11-21T01:58:43;10.52;;;5.43;;
79452;SDS011;68899;52.116;5.404;2023-11-21T02:01:10;8.48;;;5.00;;
79452;SDS011;68899;52.116;5.404;2023-11-21T02:03:36;9.45;;;4.68;;
79452;SDS011;68899;52.116;5.404;2023-11-21T02:06:03;7.18;;;4.45;;
79452;SDS011;68899;52.116;5.404;2023-11-21T02:08:30;8.88;;;4.65;;
79452;SDS011;68899;52.116;5.404;2023-11-21T02:10:57;11.75;;;4.65;;
79452;SDS011;68899;52.116;5.404;2023-11-21T02:13:25;9.75;;;4.70;;
79452;SDS011;68899;52.116;5.404;2023-11-21T02:15:51;12.82;;;6.05;;
79452;SDS011;68899;52.116;5.404;2023-11-21T02:18:19;9.25;;;5.20;;
79452;SDS011;68899;52.116;5.404;2023-11-21T02:20:46;9.35;;;5.03;;
79452;SDS011;68899;52.116;5.404;2023-11-21T02:23:13;9.07;;;4.40;;
79452;SDS011;68899;52.116;5.404;2023-11-21T02:25:40;11.30;;;4.95;;
79452;SDS011;68899;52.116;5.404;2023-11-21T02:28:09;9.60;;;5.25;;
79452;SDS011;68899;52.116;5.404;2023-11-21T02:30:39;11.45;;;4.97;;
79452;SDS011;68899;52.116;5.404;2023-11-21T02:33:05;9.63;;;5.43;;
79452;SDS011;68899;52.116;5.404;2023-11-21T02:35:33;12.43;;;5.43;;
79452;SDS011;68899;52.116;5.404;2023-11-21T02:38:00;10.25;;;5.90;;
79452;SDS011;68899;52.116;5.404;2023-11-21T02:40:27;10.48;;;5.25;;
79452;SDS011;68899;52.116;5.404;2023-11-21T02:42:56;11.13;;;5.85;;
79452;SDS011;68899;52.116;5.404;2023-11-21T02:45:26;10.63;;;6.43;;
79452;SDS011;68899;52.116;5.404;2023-11-21T02:47:52;8.77;;;5.03;;
79452;SDS011;68899;52.116;5.404;2023-11-21T02:50:24;9.90;;;5.50;;
79452;SDS011;68899;52.116;5.404;2023-11-21T02:52:50;9.30;;;5.15;;
79452;SDS011;68899;52.116;5.404;2023-11-21T02:55:17;10.68;;;4.97;;
79452;SDS011;68899;52.116;5.404;2023-11-21T02:57:44;9.45;;;4.82;;
79452;SDS011;68899;52.116;5.404;2023-11-21T03:00:11;10.52;;;5.40;;
79452;SDS011;68899;52.116;5.404;2023-11-21T03:02:39;9.50;;;5.10;;
79452;SDS011;68899;52.116;5.404;2023-11-21T03:05:06;9.75;;;5.80;;
79452;SDS011;68899;52.116;5.404;2023-11-21T03:07:36;11.77;;;5.22;;
79452;SDS011;68899;52.116;5.404;2023-11-21T03:10:03;9.95;;;5.10;;
79452;SDS011;68899;52.116;5.404;2023-11-21T03:12:30;9.63;;;4.78;;
79452;SDS011;68899;52.116;5.404;2023-11-21T03:14:57;13.48;;;5.40;;
79452;SDS011;68899;52.116;5.404;2023-11-21T03:17:23;12.80;;;5.00;;
79452;SDS011;68899;52.116;5.404;2023-11-21T03:19:50;8.90;;;5.13;;
79452;SDS011;68899;52.116;5.404;2023-11-21T03:22:18;8.55;;;4.22;;
79452;SDS011;68899;52.116;5.404;2023-11-21T03:24:45;8.73;;;4.93;;
79452;SDS011;68899;52.116;5.404;2023-11-21T03:27:12;10.40;;;4.72;;
79452;SDS011;68899;52.116;5.404;2023-11-21T03:29:38;8.65;;;4.82;;
79452;SDS011;68899;52.116;5.404;2023-11-21T03:32:05;11.23;;;5.22;;
79452;SDS011;68899;52.116;5.404;2023-11-21T03:34:33;10.85;;;5.82;;
79452;SDS011;68899;52.116;5.404;2023-11-21T03:37:00;8.15;;;5.15;;
79452;SDS011;68899;52.116;5.404;2023-11-21T03:39:26;10.15;;;5.72;;
79452;SDS011;68899;52.116;5.404;2023-11-21T03:41:53;9.45;;;5.30;;
79452;SDS011;68899;52.116;5.404;2023-11-21T03:44:20;9.38;;;5.80;;
79452;SDS011;68899;52.116;5.404;2023-11-21T03:46:46;8.48;;;5.00;;
79452;SDS011;68899;52.116;5.404;2023-11-21T03:49:13;9.90;;;4.65;;
79452;SDS011;68899;52.116;5.404;2023-11-21T03:51:39;10.35;;;5.18;;
79452;SDS011;68899;52.116;5.404;2023-11-21T03:54:06;9.98;;;5.97;;
79452;SDS011;68899;52.116;5.404;2023-11-21T03:56:32;11.80;;;5.00;;
79452;SDS011;68899;52.116;5.404;2023-11-21T03:58:58;8.75;;;5.28;;
79452;SDS011;68899;52.116;5.404;2023-11-21T04:01:25;7.57;;;4.78;;
79452;SDS011;68899;52.116;5.404;2023-11-21T04:03:52;7.85;;;5.13;;
79452;SDS011;68899;52.116;5.404;2023-11-21T04:06:18;9.63;;;5.95;;
79452;SDS011;68899;52.116;5.404;2023-11-21T04:08:45;9.85;;;5.10;;
79452;SDS011;68899;52.116;5.404;2023-11-21T04:11:14;11.85;;;5.38;;
79452;SDS011;68899;52.116;5.404;2023-11-21T04:13:41;10.35;;;5.13;;
79452;SDS011;68899;52.116;5.404;2023-11-21T04:16:08;10.30;;;4.38;;
79452;SDS011;68899;52.116;5.404;2023-11-21T04:18:35;11.75;;;5.22;;
79452;SDS011;68899;52.116;5.404;2023-11-21T04:21:03;9.13;;;4.75;;
79452;SDS011;68899;52.116;5.404;2023-11-21T04:23:33;9.13;;;5.10;;
79452;SDS011;68899;52.116;5.404;2023-11-21T04:26:01;9.68;;;4.88;;
79452;SDS011;68899;52.116;5.404;2023-11-21T04:28:28;9.98;;;5.95;;
79452;SDS011;68899;52.116;5.404;2023-11-21T04:30:56;11.98;;;5.85;;
79452;SDS011;68899;52.116;5.404;2023-11-21T04:33:22;11.57;;;4.72;;
79452;SDS011;68899;52.116;5.404;2023-11-21T04:35:49;12.00;;;5.50;;
79452;SDS011;68899;52.116;5.404;2023-11-21T04:38:15;10.73;;;5.57;;
79452;SDS011;68899;52.116;5.404;2023-11-21T04:40:42;13.57;;;6.78;;
79452;SDS011;68899;52.116;5.404;2023-11-21T04:43:08;13.70;;;6.10;;
79452;SDS011;68899;52.116;5.404;2023-11-21T04:45:35;9.95;;;6.22;;
79452;SDS011;68899;52.116;5.404;2023-11-21T04:48:01;11.10;;;5.28;;
79452;SDS011;68899;52.116;5.404;2023-11-21T04:50:28;12.35;;;5.82;;
79452;SDS011;68899;52.116;5.404;2023-11-21T04:52:55;11.60;;;6.07;;
79452;SDS011;68899;52.116;5.404;2023-11-21T04:55:21;14.55;;;6.38;;
79452;SDS011;68899;52.116;5.404;2023-11-21T04:57:48;10.52;;;5.50;;
79452;SDS011;68899;52.116;5.404;2023-11-21T05:00:14;14.32;;;5.72;;
79452;SDS011;68899;52.116;5.404;2023-11-21T05:02:42;10.48;;;5.93;;
79452;SDS011;68899;52.116;5.404;2023-11-21T05:05:10;11.55;;;5.93;;
79452;SDS011;68899;52.116;5.404;2023-11-21T05:07:37;13.27;;;6.10;;
79452;SDS011;68899;52.116;5.404;2023-11-21T05:10:05;11.90;;;6.20;;
79452;SDS011;68899;52.116;5.404;2023-11-21T05:12:35;10.38;;;5.80;;
79452;SDS011;68899;52.116;5.404;2023-11-21T05:15:03;12.00;;;5.63;;
79452;SDS011;68899;52.116;5.404;2023-11-21T05:17:33;9.75;;;5.75;;
79452;SDS011;68899;52.116;5.404;2023-11-21T05:20:01;12.93;;;6.40;;
79452;SDS011;68899;52.116;5.404;2023-11-21T05:22:34;13.90;;;6.72;;
79452;SDS011;68899;52.116;5.404;2023-11-21T05:25:01;11.68;;;5.78;;
79452;SDS011;68899;52.116;5.404;2023-11-21T05:27:30;12.35;;;6.95;;
79452;SDS011;68899;52.116;5.404;2023-11-21T05:30:05;13.52;;;5.80;;
79452;SDS011;68899;52.116;5.404;2023-11-21T05:32:33;9.73;;;5.55;;
79452;SDS011;68899;52.116;5.404;2023-11-21T05:35:00;13.25;;;5.82;;
79452;SDS011;68899;52.116;5.404;2023-11-21T05:37:27;12.82;;;5.85;;
79452;SDS011;68899;52.116;5.404;2023-11-21T05:39:54;12.98;;;5.60;;
79452;SDS011;68899;52.116;5.404;2023-11-21T05:42:23;11.70;;;5.90;;
79452;SDS011;68899;52.116;5.404;2023-11-21T05:44:50;12.02;;;5.90;;
79452;SDS011;68899;52.116;5.404;2023-11-21T05:47:16;12.68;;;6.63;;
79452;SDS011;68899;52.116;5.404;2023-11-21T05:49:43;10.82;;;6.18;;
79452;SDS011;68899;52.116;5.404;2023-11-21T05:52:11;10.52;;;5.65;;
79452;SDS011;68899;52.116;5.404;2023-11-21T05:54:37;12.18;;;7.22;;
79452;SDS011;68899;52.116;5.404;2023-11-21T05:57:04;12.70;;;6.15;;
79452;SDS011;68899;52.116;5.404;2023-11-21T05:59:30;14.30;;;6.35;;
79452;SDS011;68899;52.116;5.404;2023-11-21T06:01:57;13.05;;;6.10;;
79452;SDS011;68899;52.116;5.404;2023-11-21T06:04:25;12.65;;;6.07;;
79452;SDS011;68899;52.116;5.404;2023-11-21T06:06:52;12.02;;;6.00;;
79452;SDS011;68899;52.116;5.404;2023-11-21T06:09:21;12.05;;;6.55;;
79452;SDS011;68899;52.116;5.404;2023-11-21T06:11:48;17.15;;;6.63;;
79452;SDS011;68899;52.116;5.404;2023-11-21T06:14:14;11.98;;;5.63;;
79452;SDS011;68899;52.116;5.404;2023-11-21T06:16:44;14.50;;;5.75;;
79452;SDS011;68899;52.116;5.404;2023-11-21T06:19:11;12.20;;;6.07;;
79452;SDS011;68899;52.116;5.404;2023-11-21T06:21:38;14.77;;;5.65;;
79452;SDS011;68899;52.116;5.404;2023-11-21T06:24:05;16.70;;;7.50;;
79452;SDS011;68899;52.116;5.404;2023-11-21T06:26:31;13.20;;;5.72;;
79452;SDS011;68899;52.116;5.404;2023-11-21T06:28:58;13.13;;;6.88;;
79452;SDS011;68899;52.116;5.404;2023-11-21T06:31:25;13.98;;;6.45;;
79452;SDS011;68899;52.116;5.404;2023-11-21T06:33:51;13.13;;;7.45;;
79452;SDS011;68899;52.116;5.404;2023-11-21T06:36:19;12.10;;;6.40;;
79452;SDS011;68899;52.116;5.404;2023-11-21T06:38:45;15.45;;;6.20;;
79452;SDS011;68899;52.116;5.404;2023-11-21T06:41:12;14.40;;;6.57;;
79452;SDS011;68899;52.116;5.404;2023-11-21T06:43:42;12.32;;;5.70;;
79452;SDS011;68899;52.116;5.404;2023-11-21T06:46:13;10.93;;;6.88;;
79452;SDS011;68899;52.116;5.404;2023-11-21T06:48:42;13.43;;;6.43;;
79452;SDS011;68899;52.116;5.404;2023-11-21T06:51:09;10.50;;;5.93;;
79452;SDS011;68899;52.116;5.404;2023-11-21T06:53:36;12.68;;;6.53;;
79452;SDS011;68899;52.116;5.404;2023-11-21T06:56:04;12.43;;;5.45;;
79452;SDS011;68899;52.116;5.404;2023-11-21T06:58:41;13.57;;;6.43;;
79452;SDS011;68899;52.116;5.404;2023-11-21T07:01:07;14.40;;;5.93;;
79452;SDS011;68899;52.116;5.404;2023-11-21T07:03:34;10.75;;;5.18;;
79452;SDS011;68899;52.116;5.404;2023-11-21T07:06:01;13.93;;;7.25;;
79452;SDS011;68899;52.116;5.404;2023-11-21T07:08:27;13.25;;;6.38;;
79452;SDS011;68899;52.116;5.404;2023-11-21T07:10:53;14.45;;;6.13;;
79452;SDS011;68899;52.116;5.404;2023-11-21T07:13:20;11.55;;;5.60;;
79452;SDS011;68899;52.116;5.404;2023-11-21T07:15:48;10.00;;;5.65;;
79452;SDS011;68899;52.116;5.404;2023-11-21T07:18:15;11.48;;;5.78;;
79452;SDS011;68899;52.116;5.404;2023-11-21T07:20:41;13.00;;;6.03;;
79452;SDS011;68899;52.116;5.404;2023-11-21T07:23:08;11.10;;;5.82;;
79452;SDS011;68899;52.116;5.404;2023-11-21T07:25:34;9.95;;;5.47;;
79452;SDS011;68899;52.116;5.404;2023-11-21T07:28:01;12.00;;;5.32;;
79452;SDS011;68899;52.116;5.404;2023-11-21T07:30:27;13.10;;;5.30;;
79452;SDS011;68899;52.116;5.404;2023-11-21T07:32:54;9.40;;;5.32;;
79452;SDS011;68899;52.116;5.404;2023-11-21T07:35:20;9.80;;;5.45;;
79452;SDS011;68899;52.116;5.404;2023-11-21T07:37:47;9.98;;;5.65;;
79452;SDS011;68899;52.116;5.404;2023-11-21T07:40:15;9.30;;;4.97;;
79452;SDS011;68899;52.116;5.404;2023-11-21T07:42:41;11.10;;;4.10;;
79452;SDS011;68899;52.116;5.404;2023-11-21T07:45:09;8.85;;;5.07;;
79452;SDS011;68899;52.116;5.404;2023-11-21T07:47:35;9.90;;;5.00;;
79452;SDS011;68899;52.116;5.404;2023-11-21T07:50:02;11.55;;;5.38;;
79452;SDS011;68899;52.116;5.404;2023-11-21T07:52:29;8.18;;;4.25;;
79452;SDS011;68899;52.116;5.404;2023-11-21T07:54:56;10.32;;;5.03;;
79452;SDS011;68899;52.116;5.404;2023-11-21T07:57:22;10.15;;;5.13;;
79452;SDS011;68899;52.116;5.404;2023-11-21T07:59:49;8.43;;;4.10;;
79452;SDS011;68899;52.116;5.404;2023-11-21T08:02:15;8.13;;;4.35;;
79452;SDS011;68899;52.116;5.404;2023-11-21T08:04:43;7.88;;;4.70;;
79452;SDS011;68899;52.116;5.404;2023-11-21T08:07:11;11.18;;;5.50;;
79452;SDS011;68899;52.116;5.404;2023-11-21T08:09:37;8.30;;;4.55;;
79452;SDS011;68899;52.116;5.404;2023-11-21T08:12:04;11.70;;;5.20;;
79452;SDS011;68899;52.116;5.404;2023-11-21T08:14:31;10.57;;;4.75;;
79452;SDS011;68899;52.116;5.404;2023-11-21T08:16:57;10.27;;;4.45;;
79452;SDS011;68899;52.116;5.404;2023-11-21T08:19:24;11.45;;;4.75;;
79452;SDS011;68899;52.116;5.404;2023-11-21T08:21:53;8.60;;;4.18;;
79452;SDS011;68899;52.116;5.404;2023-11-21T08:24:21;9.07;;;4.18;;
79452;SDS011;68899;52.116;5.404;2023-11-21T08:26:48;10.40;;;4.15;;
79452;SDS011;68899;52.116;5.404;2023-11-21T08:29:14;8.57;;;4.32;;
79452;SDS011;68899;52.116;5.404;2023-11-21T08:31:41;8.63;;;3.95;;
79452;SDS011;68899;52.116;5.404;2023-11-21T08:34:07;7.63;;;4.07;;
79452;SDS011;68899;52.116;5.404;2023-11-21T08:36:34;8.35;;;4.20;;
79452;SDS011;68899;52.116;5.404;2023-11-21T08:39:01;12.45;;;4.47;;
79452;SDS011;68899;52.116;5.404;2023-11-21T08:41:27;12.00;;;4.57;;
79452;SDS011;68899;52.116;5.404;2023-11-21T08:43:54;9.00;;;4.18;;
79452;SDS011;68899;52.116;5.404;2023-11-21T08:46:21;8.32;;;3.90;;
79452;SDS011;68899;52.116;5.404;2023-11-21T08:48:48;9.30;;;3.65;;
79452;SDS011;68899;52.116;5.404;2023-11-21T08:51:15;9.50;;;4.45;;
79452;SDS011;68899;52.116;5.404;2023-11-21T08:53:42;8.35;;;3.85;;
79452;SDS011;68899;52.116;5.404;2023-11-21T08:56:12;9.07;;;3.72;;
79452;SDS011;68899;52.116;5.404;2023-11-21T08:58:40;12.55;;;4.15;;
79452;SDS011;68899;52.116;5.404;2023-11-21T09:01:07;10.32;;;4.15;;
79452;SDS011;68899;52.116;5.404;2023-11-21T09:03:34;10.35;;;4.90;;
79452;SDS011;68899;52.116;5.404;2023-11-21T09:06:01;14.18;;;4.53;;
79452;SDS011;68899;52.116;5.404;2023-11-21T09:08:27;8.05;;;4.45;;
79452;SDS011;68899;52.116;5.404;2023-11-21T09:10:56;10.38;;;4.93;;
79452;SDS011;68899;52.116;5.404;2023-11-21T09:13:23;11.48;;;5.05;;
79452;SDS011;68899;52.116;5.404;2023-11-21T09:15:51;12.68;;;5.78;;
79452;SDS011;68899;52.116;5.404;2023-11-21T09:18:18;10.00;;;5.38;;
79452;SDS011;68899;52.116;5.404;2023-11-21T09:20:45;9.85;;;5.45;;
79452;SDS011;68899;52.116;5.404;2023-11-21T09:23:11;12.50;;;5.53;;
79452;SDS011;68899;52.116;5.404;2023-11-21T09:25:38;12.90;;;5.82;;
79452;SDS011;68899;52.116;5.404;2023-11-21T09:28:05;15.07;;;6.22;;
79452;SDS011;68899;52.116;5.404;2023-11-21T09:30:34;13.90;;;7.03;;
79452;SDS011;68899;52.116;5.404;2023-11-21T09:33:01;13.10;;;6.28;;
79452;SDS011;68899;52.116;5.404;2023-11-21T09:35:28;15.00;;;7.70;;
79452;SDS011;68899;52.116;5.404;2023-11-21T09:37:56;13.82;;;6.35;;
79452;SDS011;68899;52.116;5.404;2023-11-21T09:40:22;14.15;;;6.35;;
79452;SDS011;68899;52.116;5.404;2023-11-21T09:42:59;12.95;;;6.60;;
79452;SDS011;68899;52.116;5.404;2023-11-21T09:45:27;12.20;;;6.88;;
79452;SDS011;68899;52.116;5.404;2023-11-21T09:47:56;13.70;;;6.78;;
79452;SDS011;68899;52.116;5.404;2023-11-21T09:50:23;14.88;;;6.50;;
79452;SDS011;68899;52.116;5.404;2023-11-21T09:55:37;12.82;;;6.22;;
79452;SDS011;68899;52.116;5.404;2023-11-21T09:58:06;13.77;;;7.75;;
79452;SDS011;68899;52.116;5.404;2023-11-21T10:00:41;14.60;;;6.68;;
79452;SDS011;68899;52.116;5.404;2023-11-21T10:03:09;14.65;;;6.55;;
79452;SDS011;68899;52.116;5.404;2023-11-21T10:05:36;14.93;;;6.30;;
79452;SDS011;68899;52.116;5.404;2023-11-21T10:08:12;17.98;;;7.38;;
79452;SDS011;68899;52.116;5.404;2023-11-21T10:10:42;15.93;;;6.32;;
79452;SDS011;68899;52.116;5.404;2023-11-21T10:13:14;14.18;;;6.47;;
79452;SDS011;68899;52.116;5.404;2023-11-21T10:15:49;11.93;;;6.30;;
79452;SDS011;68899;52.116;5.404;2023-11-21T10:18:17;11.57;;;5.50;;
79452;SDS011;68899;52.116;5.404;2023-11-21T10:20:44;11.73;;;5.28;;
79452;SDS011;68899;52.116;5.404;2023-11-21T10:23:19;9.55;;;5.13;;
79452;SDS011;68899;52.116;5.404;2023-11-21T10:25:48;10.48;;;5.38;;
79452;SDS011;68899;52.116;5.404;2023-11-21T10:28:16;11.43;;;5.18;;
79452;SDS011;68899;52.116;5.404;2023-11-21T10:30:42;11.23;;;5.18;;
79452;SDS011;68899;52.116;5.404;2023-11-21T10:33:10;8.57;;;4.32;;
79452;SDS011;68899;52.116;5.404;2023-11-21T10:38:17;8.05;;;4.00;;
79452;SDS011;68899;52.116;5.404;2023-11-21T10:40:44;8.85;;;5.70;;
79452;SDS011;68899;52.116;5.404;2023-11-21T10:43:12;11.13;;;5.25;;
79452;SDS011;68899;52.116;5.404;2023-11-21T10:45:39;14.25;;;6.25;;
79452;SDS011;68899;52.116;5.404;2023-11-21T10:48:06;13.45;;;6.55;;
79452;SDS011;68899;52.116;5.404;2023-11-21T10:50:51;12.70;;;6.43;;
79452;SDS011;68899;52.116;5.404;2023-11-21T10:53:18;11.52;;;6.15;;
79452;SDS011;68899;52.116;5.404;2023-11-21T10:55:45;9.38;;;5.25;;
79452;SDS011;68899;52.116;5.404;2023-11-21T10:58:13;8.50;;;4.88;;
79452;SDS011;68899;52.116;5.404;2023-11-21T11:00:40;9.88;;;4.70;;
79452;SDS011;68899;52.116;5.404;2023-11-21T11:03:07;9.68;;;5.10;;
79452;SDS011;68899;52.116;5.404;2023-11-21T11:05:42;9.55;;;6.28;;
79452;SDS011;68899;52.116;5.404;2023-11-21T11:08:17;10.43;;;5.97;;
79452;SDS011;68899;52.116;5.404;2023-11-21T11:10:45;13.05;;;6.88;;
79452;SDS011;68899;52.116;5.404;2023-11-21T11:13:15;10.68;;;5.72;;
79452;SDS011;68899;52.116;5.404;2023-11-21T11:15:41;12.02;;;5.43;;
79452;SDS011;68899;52.116;5.404;2023-11-21T11:18:09;12.50;;;7.28;;
79452;SDS011;68899;52.116;5.404;2023-11-21T11:20:37;13.43;;;6.22;;
79452;SDS011;68899;52.116;5.404;2023-11-21T11:23:25;11.57;;;6.30;;
79452;SDS011;68899;52.116;5.404;2023-11-21T11:26:05;10.15;;;5.55;;
79452;SDS011;68899;52.116;5.404;2023-11-21T11:34:08;10.80;;;5.80;;
79452;SDS011;68899;52.116;5.404;2023-11-21T11:36:49;9.05;;;5.03;;
79452;SDS011;68899;52.116;5.404;2023-11-21T11:41:53;11.13;;;5.40;;
79452;SDS011;68899;52.116;5.404;2023-11-21T11:52:38;10.18;;;5.53;;
79452;SDS011;68899;52.116;5.404;2023-11-21T11:55:12;14.40;;;6.70;;
79452;SDS011;68899;52.116;5.404;2023-11-21T11:57:42;11.38;;;6.75;;
79452;SDS011;68899;52.116;5.404;2023-11-21T12:02:51;13.43;;;6.95;;
79452;SDS011;68899;52.116;5.404;2023-11-21T12:05:20;14.07;;;6.97;;
79452;SDS011;68899;52.116;5.404;2023-11-21T12:07:52;14.73;;;6.15;;
79452;SDS011;68899;52.116;5.404;2023-11-21T12:10:21;16.70;;;8.02;;
79452;SDS011;68899;52.116;5.404;2023-11-21T12:12:52;12.00;;;7.18;;
79452;SDS011;68899;52.116;5.404;2023-11-21T12:15:19;13.45;;;7.15;;
79452;SDS011;68899;52.116;5.404;2023-11-21T12:17:48;15.35;;;7.50;;
79452;SDS011;68899;52.116;5.404;2023-11-21T12:20:18;17.10;;;8.35;;
79452;SDS011;68899;52.116;5.404;2023-11-21T12:22:47;13.40;;;7.40;;
79452;SDS011;68899;52.116;5.404;2023-11-21T12:25:15;18.20;;;7.95;;
79452;SDS011;68899;52.116;5.404;2023-11-21T12:27:43;14.48;;;8.20;;
79452;SDS011;68899;52.116;5.404;2023-11-21T12:30:11;15.65;;;8.13;;
79452;SDS011;68899;52.116;5.404;2023-11-21T12:32:42;18.70;;;8.38;;
79452;SDS011;68899;52.116;5.404;2023-11-21T12:35:09;15.85;;;7.95;;
79452;SDS011;68899;52.116;5.404;2023-11-21T12:37:37;18.27;;;8.77;;
79452;SDS011;68899;52.116;5.404;2023-11-21T12:40:05;14.77;;;8.25;;
79452;SDS011;68899;52.116;5.404;2023-11-21T12:42:33;14.00;;;7.80;;
79452;SDS011;68899;52.116;5.404;2023-11-21T12:47:43;17.88;;;8.50;;
79452;SDS011;68899;52.116;5.404;2023-11-21T12:50:20;16.13;;;8.35;;
79452;SDS011;68899;52.116;5.404;2023-11-21T12:52:50;16.67;;;8.32;;
79452;SDS011;68899;52.116;5.404;2023-11-21T12:55:18;16.73;;;8.85;;
79452;SDS011;68899;52.116;5.404;2023-11-21T12:57:50;17.88;;;8.77;;
79452;SDS011;68899;52.116;5.404;2023-11-21T13:00:18;14.90;;;8.98;;
79452;SDS011;68899;52.116;5.404;2023-11-21T13:02:54;17.13;;;7.95;;
79452;SDS011;68899;52.116;5.404;2023-11-21T13:05:24;18.15;;;8.52;;
79452;SDS011;68899;52.116;5.404;2023-11-21T13:07:51;16.13;;;7.40;;
79452;SDS011;68899;52.116;5.404;2023-11-21T13:10:24;14.90;;;7.75;;
79452;SDS011;68899;52.116;5.404;2023-11-21T13:12:53;15.55;;;7.18;;
79452;SDS011;68899;52.116;5.404;2023-11-21T13:15:21;14.68;;;6.38;;
79452;SDS011;68899;52.116;5.404;2023-11-21T13:17:47;15.38;;;8.02;;
79452;SDS011;68899;52.116;5.404;2023-11-21T13:20:14;15.05;;;6.53;;
79452;SDS011;68899;52.116;5.404;2023-11-21T13:22:47;13.20;;;6.40;;
79452;SDS011;68899;52.116;5.404;2023-11-21T13:25:21;10.82;;;5.30;;
79452;SDS011;68899;52.116;5.404;2023-11-21T13:27:47;9.77;;;5.30;;
79452;SDS011;68899;52.116;5.404;2023-11-21T13:30:14;7.50;;;4.13;;
79452;SDS011;68899;52.116;5.404;2023-11-21T13:32:44;7.90;;;4.40;;
79452;SDS011;68899;52.116;5.404;2023-11-21T13:35:17;7.93;;;3.88;;
79452;SDS011;68899;52.116;5.404;2023-11-21T13:37:50;7.88;;;3.72;;
79452;SDS011;68899;52.116;5.404;2023-11-21T13:40:19;5.82;;;3.42;;
79452;SDS011;68899;52.116;5.404;2023-11-21T13:42:49;8.45;;;3.60;;
79452;SDS011;68899;52.116;5.404;2023-11-21T13:45:22;6.93;;;3.17;;
79452;SDS011;68899;52.116;5.404;2023-11-21T13:47:49;7.57;;;3.58;;
79452;SDS011;68899;52.116;5.404;2023-11-21T13:50:36;8.43;;;3.30;;
79452;SDS011;68899;52.116;5.404;2023-11-21T13:53:03;9.07;;;3.65;;
79452;SDS011;68899;52.116;5.404;2023-11-21T13:55:40;9.73;;;4.63;;
79452;SDS011;68899;52.116;5.404;2023-11-21T13:58:07;8.60;;;3.80;;
79452;SDS011;68899;52.116;5.404;2023-11-21T14:00:37;10.50;;;5.20;;
79452;SDS011;68899;52.116;5.404;2023-11-21T14:03:14;10.98;;;5.13;;
79452;SDS011;68899;52.116;5.404;2023-11-21T14:05:48;15.27;;;6.07;;
79452;SDS011;68899;52.116;5.404;2023-11-21T14:08:20;11.63;;;5.90;;
79452;SDS011;68899;52.116;5.404;2023-11-21T14:10:47;13.80;;;6.45;;
79452;SDS011;68899;52.116;5.404;2023-11-21T14:13:21;14.35;;;6.20;;
79452;SDS011;68899;52.116;5.404;2023-11-21T14:15:49;15.20;;;5.97;;
79452;SDS011;68899;52.116;5.404;2023-11-21T14:18:18;18.48;;;8.05;;
79452;SDS011;68899;52.116;5.404;2023-11-21T14:20:53;17.75;;;7.30;;
79452;SDS011;68899;52.116;5.404;2023-11-21T14:23:20;16.52;;;8.23;;
79452;SDS011;68899;52.116;5.404;2023-11-21T14:25:47;15.23;;;7.63;;
79452;SDS011;68899;52.116;5.404;2023-11-21T14:28:14;17.65;;;6.70;;
79452;SDS011;68899;52.116;5.404;2023-11-21T14:30:41;15.60;;;7.50;;
79452;SDS011;68899;52.116;5.404;2023-11-21T14:33:08;16.02;;;7.03;;
79452;SDS011;68899;52.116;5.404;2023-11-21T14:35:37;14.55;;;7.65;;
79452;SDS011;68899;52.116;5.404;2023-11-21T14:38:04;13.95;;;7.60;;
79452;SDS011;68899;52.116;5.404;2023-11-21T14:40:31;16.90;;;7.70;;
79452;SDS011;68899;52.116;5.404;2023-11-21T14:43:02;17.92;;;8.73;;
79452;SDS011;68899;52.116;5.404;2023-11-21T14:45:32;16.77;;;7.78;;
79452;SDS011;68899;52.116;5.404;2023-11-21T14:48:00;17.52;;;7.82;;
79452;SDS011;68899;52.116;5.404;2023-11-21T14:50:42;18.38;;;8.35;;
79452;SDS011;68899;52.116;5.404;2023-11-21T14:53:12;19.35;;;8.70;;
79452;SDS011;68899;52.116;5.404;2023-11-21T14:55:39;15.95;;;7.65;;
79452;SDS011;68899;52.116;5.404;2023-11-21T14:58:18;17.50;;;8.82;;
79452;SDS011;68899;52.116;5.404;2023-11-21T15:00:53;20.70;;;9.57;;
79452;SDS011;68899;52.116;5.404;2023-11-21T15:03:27;23.05;;;10.45;;
79452;SDS011;68899;52.116;5.404;2023-11-21T15:06:01;19.00;;;9.27;;
79452;SDS011;68899;52.116;5.404;2023-11-21T15:08:56;18.77;;;8.80;;
79452;SDS011;68899;52.116;5.404;2023-11-21T15:11:33;16.58;;;8.38;;